createdAt,value
2023-05-08T00:01:02.941Z,2.90
2023-05-08T00:03:30.244Z,3.30
2023-05-08T00:08:34.207Z,3.40
2023-05-08T00:11:01.216Z,3.40
2023-05-08T00:13:30.040Z,3.60
2023-05-08T00:15:56.847Z,2.90
2023-05-08T00:18:23.552Z,3.60
2023-05-08T00:20:50.849Z,3.10
2023-05-08T00:23:17.645Z,3.30
2023-05-08T00:25:44.380Z,3.70
2023-05-08T00:28:11.180Z,3.30
2023-05-08T00:30:38.501Z,3.20
2023-05-08T00:33:13.017Z,3.60
2023-05-08T00:35:42.368Z,3.90
2023-05-08T00:38:09.450Z,3.40
2023-05-08T00:40:39.465Z,3.50
2023-05-08T00:43:06.849Z,3.70
2023-05-08T00:45:36.589Z,3.00
2023-05-08T00:48:03.515Z,3.50
2023-05-08T00:50:31.388Z,3.30
2023-05-08T00:52:58.304Z,3.30
2023-05-08T00:55:25.184Z,3.30
2023-05-08T00:57:52.347Z,3.00
2023-05-08T01:00:19.212Z,2.80
2023-05-08T01:02:46.743Z,2.90
2023-05-08T01:05:13.764Z,3.00
2023-05-08T01:07:40.864Z,3.00
2023-05-08T01:10:08.115Z,3.00
2023-05-08T01:13:00.261Z,2.90
2023-05-08T01:15:30.664Z,3.00
2023-05-08T01:18:16.686Z,3.20
2023-05-08T01:21:12.169Z,3.10
2023-05-08T01:24:25.237Z,3.00
2023-05-08T01:27:15.173Z,3.10
2023-05-08T01:29:55.239Z,3.00
2023-05-08T01:32:25.870Z,3.20
2023-05-08T01:35:20.952Z,3.30
2023-05-08T01:38:06.312Z,3.00
2023-05-08T01:40:54.318Z,3.20
2023-05-08T01:43:28.593Z,3.00
2023-05-08T01:45:55.862Z,3.50
2023-05-08T01:48:31.140Z,2.80
2023-05-08T01:51:13.755Z,3.10
2023-05-08T01:53:42.244Z,2.90
2023-05-08T01:56:11.552Z,2.70
2023-05-08T01:58:38.670Z,2.90
2023-05-08T02:01:05.579Z,3.40
2023-05-08T02:03:32.477Z,3.00
2023-05-08T02:05:59.397Z,2.70
2023-05-08T02:08:26.446Z,3.10
2023-05-08T02:10:53.497Z,2.80
2023-05-08T02:13:21.492Z,2.80
2023-05-08T02:15:49.074Z,3.00
2023-05-08T02:18:18.445Z,3.50
2023-05-08T02:20:45.381Z,2.90
2023-05-08T02:23:12.290Z,3.30
2023-05-08T02:25:39.229Z,2.70
2023-05-08T02:28:07.550Z,3.10
2023-05-08T02:30:34.452Z,3.30
2023-05-08T02:33:01.332Z,2.70
2023-05-08T02:35:28.271Z,3.00
2023-05-08T02:37:55.521Z,2.80
2023-05-08T02:40:22.998Z,3.20
2023-05-08T02:42:49.928Z,2.80
2023-05-08T02:45:16.858Z,3.40
2023-05-08T02:48:20.087Z,3.50
2023-05-08T02:53:42.675Z,2.90
2023-05-08T02:56:21.538Z,3.50
2023-05-08T02:59:00.935Z,2.80
2023-05-08T03:01:35.201Z,3.00
2023-05-08T03:04:05.732Z,3.20
2023-05-08T03:06:42.209Z,3.30
2023-05-08T03:09:15.901Z,3.30
2023-05-08T03:11:44.674Z,2.80
2023-05-08T03:14:12.171Z,3.80
2023-05-08T03:16:39.639Z,3.20
2023-05-08T03:19:29.876Z,3.80
2023-05-08T03:21:56.918Z,2.70
2023-05-08T03:24:23.829Z,3.00
2023-05-08T03:26:51.077Z,3.00
2023-05-08T03:29:18.007Z,3.10
2023-05-08T03:31:45.254Z,2.90
2023-05-08T03:34:12.404Z,3.00
2023-05-08T03:36:39.998Z,3.60
2023-05-08T03:39:07.124Z,3.30
2023-05-08T03:41:33.969Z,3.30
2023-05-08T03:44:01.366Z,3.40
2023-05-08T03:46:28.175Z,3.30
2023-05-08T03:48:56.052Z,3.30
2023-05-08T03:51:22.924Z,3.20
2023-05-08T03:53:50.552Z,3.40
2023-05-08T03:56:17.946Z,3.00
2023-05-08T03:58:56.148Z,3.30
2023-05-08T04:01:40.227Z,3.00
2023-05-08T04:04:16.289Z,3.10
2023-05-08T04:06:51.185Z,3.70
2023-05-08T04:09:26.639Z,2.90
2023-05-08T04:12:06.133Z,3.20
2023-05-08T04:14:37.197Z,3.00
2023-05-08T04:17:06.825Z,2.60
2023-05-08T04:19:35.925Z,3.30
2023-05-08T04:22:05.831Z,2.70
2023-05-08T04:24:34.620Z,3.00
2023-05-08T04:27:02.049Z,3.90
2023-05-08T04:29:29.760Z,3.10
2023-05-08T04:31:56.587Z,3.50
2023-05-08T04:34:23.551Z,3.40
2023-05-08T04:36:50.413Z,3.50
2023-05-08T04:39:17.701Z,2.90
2023-05-08T04:41:45.233Z,3.30
2023-05-08T04:44:13.360Z,3.40
2023-05-08T04:46:40.559Z,3.00
2023-05-08T04:49:07.668Z,3.40
2023-05-08T04:51:35.846Z,3.20
2023-05-08T04:54:02.667Z,3.50
2023-05-08T04:56:29.903Z,2.90
2023-05-08T04:58:56.686Z,3.50
2023-05-08T05:01:23.856Z,2.80
2023-05-08T05:03:50.784Z,3.40
2023-05-08T05:06:18.675Z,3.20
2023-05-08T05:08:45.410Z,3.10
2023-05-08T05:11:12.312Z,3.40
2023-05-08T05:13:39.422Z,3.10
2023-05-08T05:16:07.159Z,3.20
2023-05-08T05:18:35.868Z,2.90
2023-05-08T05:21:03.760Z,3.00
2023-05-08T05:23:31.418Z,3.10
2023-05-08T05:25:58.234Z,3.30
2023-05-08T05:28:25.605Z,3.20
2023-05-08T05:30:52.631Z,3.50
2023-05-08T05:33:19.670Z,2.80
2023-05-08T05:35:46.852Z,3.60
2023-05-08T05:38:13.624Z,3.60
2023-05-08T05:40:40.722Z,4.20
2023-05-08T05:43:08.395Z,3.90
2023-05-08T05:45:35.701Z,4.90
2023-05-08T05:48:04.866Z,3.90
2023-05-08T05:50:33.274Z,4.10
2023-05-08T05:53:00.325Z,3.80
2023-05-08T05:55:27.595Z,4.10
2023-05-08T05:57:54.787Z,3.80
2023-05-08T06:00:21.871Z,4.70
2023-05-08T06:02:50.725Z,4.30
2023-05-08T06:05:22.533Z,3.70
2023-05-08T06:07:49.791Z,3.70
2023-05-08T06:10:17.206Z,3.90
2023-05-08T06:12:44.240Z,3.90
2023-05-08T06:15:12.127Z,2.90
2023-05-08T06:17:39.496Z,3.50
2023-05-08T06:20:07.784Z,3.50
2023-05-08T06:22:37.065Z,3.50
2023-05-08T06:25:06.511Z,4.10
2023-05-08T06:27:34.530Z,4.20
2023-05-08T06:30:01.577Z,3.90
2023-05-08T06:32:28.787Z,4.00
2023-05-08T06:34:56.166Z,4.00
2023-05-08T06:37:23.140Z,3.60
2023-05-08T06:39:54.702Z,3.50
2023-05-08T06:42:31.299Z,3.90
2023-05-08T06:44:58.100Z,3.80
2023-05-08T06:47:25.302Z,3.10
2023-05-08T06:49:53.411Z,3.40
2023-05-08T06:52:20.510Z,3.40
2023-05-08T06:54:47.183Z,3.90
2023-05-08T06:57:14.154Z,3.40
2023-05-08T06:59:40.895Z,3.50
2023-05-08T07:02:09.321Z,4.10
2023-05-08T07:04:36.714Z,3.00
2023-05-08T07:07:03.586Z,4.40
2023-05-08T07:09:30.502Z,3.80
2023-05-08T07:11:57.661Z,3.40
2023-05-08T07:14:24.456Z,4.00
2023-05-08T07:16:51.285Z,3.90
2023-05-08T07:19:18.806Z,3.40
2023-05-08T07:21:46.856Z,3.50
2023-05-08T07:24:13.778Z,3.70
2023-05-08T07:26:40.873Z,3.40
2023-05-08T07:29:07.738Z,4.20
2023-05-08T07:31:34.784Z,3.80
2023-05-08T07:34:01.931Z,3.80
2023-05-08T07:36:28.952Z,4.00
2023-05-08T07:38:56.262Z,4.10
2023-05-08T07:41:23.126Z,3.50
2023-05-08T07:43:50.047Z,3.30
2023-05-08T07:46:17.692Z,5.40
2023-05-08T07:48:44.755Z,4.20
2023-05-08T07:51:11.750Z,3.90
2023-05-08T07:53:39.064Z,3.50
2023-05-08T07:56:06.129Z,3.80
2023-05-08T07:58:33.260Z,4.10
2023-05-08T08:01:01.315Z,4.60
2023-05-08T08:03:29.206Z,4.60
2023-05-08T08:05:56.462Z,4.80
2023-05-08T08:08:23.492Z,3.70
2023-05-08T08:10:50.474Z,3.70
2023-05-08T08:13:17.963Z,3.70
2023-05-08T08:15:44.880Z,3.80
2023-05-08T08:18:12.562Z,4.50
2023-05-08T08:20:39.606Z,4.00
2023-05-08T08:23:06.401Z,3.50
2023-05-08T08:25:33.306Z,3.40
2023-05-08T08:28:00.394Z,4.10
2023-05-08T08:30:27.183Z,3.80
2023-05-08T08:32:54.166Z,3.60
2023-05-08T08:35:22.367Z,3.80
2023-05-08T08:37:49.622Z,3.50
2023-05-08T08:40:16.606Z,3.30
2023-05-08T08:42:43.442Z,3.40
2023-05-08T08:45:10.476Z,3.40
2023-05-08T08:47:37.833Z,3.90
2023-05-08T08:50:06.298Z,3.90
2023-05-08T08:52:53.930Z,3.70
2023-05-08T08:55:22.671Z,3.40
2023-05-08T08:58:00.118Z,3.40
2023-05-08T09:00:28.532Z,3.30
2023-05-08T09:02:55.337Z,4.10
2023-05-08T09:05:23.053Z,3.50
2023-05-08T09:07:50.929Z,3.30
2023-05-08T09:10:17.889Z,3.90
2023-05-08T09:12:45.137Z,3.30
2023-05-08T09:15:12.641Z,3.40
2023-05-08T09:17:40.292Z,3.30
2023-05-08T09:20:07.737Z,3.60
2023-05-08T09:22:37.710Z,3.40
2023-05-08T09:25:04.853Z,3.20
2023-05-08T09:27:32.261Z,3.10
2023-05-08T09:30:03.544Z,3.50
2023-05-08T09:32:31.666Z,2.90
2023-05-08T09:34:59.184Z,3.30
2023-05-08T09:37:26.859Z,3.70
2023-05-08T09:39:54.256Z,3.60
2023-05-08T09:42:22.871Z,3.20
2023-05-08T09:44:51.148Z,3.30
2023-05-08T09:47:22.549Z,3.20
2023-05-08T09:50:16.338Z,3.40
2023-05-08T09:52:46.483Z,3.20
2023-05-08T09:55:13.299Z,3.20
2023-05-08T09:57:51.023Z,3.40
2023-05-08T10:00:18.084Z,3.00
2023-05-08T10:03:01.637Z,3.50
2023-05-08T10:05:33.905Z,3.80
2023-05-08T10:08:19.584Z,3.50
2023-05-08T10:10:46.760Z,3.30
2023-05-08T10:13:13.876Z,2.90
2023-05-08T10:15:41.803Z,2.40
2023-05-08T10:18:10.477Z,3.00
2023-05-08T10:20:39.728Z,2.80
2023-05-08T10:23:11.117Z,2.90
2023-05-08T10:25:42.247Z,2.70
2023-05-08T10:28:18.392Z,3.80
2023-05-08T10:30:48.247Z,3.30
2023-05-08T10:33:17.541Z,3.30
2023-05-08T10:35:44.883Z,3.00
2023-05-08T10:38:12.064Z,2.90
2023-05-08T10:40:38.942Z,3.10
2023-05-08T10:43:09.530Z,2.80
2023-05-08T10:45:36.412Z,3.30
2023-05-08T10:48:08.375Z,3.20
2023-05-08T10:50:59.102Z,2.90
2023-05-08T10:53:53.775Z,3.50
2023-05-08T10:56:27.242Z,3.50
2023-05-08T10:58:57.809Z,3.60
2023-05-08T11:01:25.444Z,3.30
2023-05-08T11:03:54.449Z,3.10
2023-05-08T11:06:48.695Z,3.10
2023-05-08T11:09:22.563Z,3.00
2023-05-08T11:12:00.345Z,3.20
2023-05-08T11:14:28.070Z,3.30
2023-05-08T11:16:59.690Z,3.20
2023-05-08T11:22:16.664Z,3.40
2023-05-08T11:25:00.561Z,3.60
2023-05-08T11:27:39.750Z,3.00
2023-05-08T11:30:26.446Z,3.40
2023-05-08T11:33:03.070Z,3.50
2023-05-08T11:35:50.488Z,3.70
2023-05-08T11:38:22.887Z,3.20
2023-05-08T11:41:11.626Z,3.60
2023-05-08T11:44:00.220Z,3.10
2023-05-08T11:46:37.895Z,3.40
2023-05-08T11:49:05.196Z,3.40
2023-05-08T11:51:32.628Z,3.40
2023-05-08T11:54:00.047Z,3.30
2023-05-08T11:56:27.028Z,3.40
2023-05-08T11:59:04.058Z,3.30
2023-05-08T12:01:32.406Z,3.50
2023-05-08T12:04:09.775Z,3.40
2023-05-08T12:06:39.134Z,3.20
2023-05-08T12:09:16.031Z,2.90
2023-05-08T12:11:45.075Z,3.10
2023-05-08T12:14:13.112Z,2.90
2023-05-08T12:16:40.127Z,2.90
2023-05-08T12:19:11.035Z,3.00
2023-05-08T12:21:37.966Z,3.00
2023-05-08T12:24:10.884Z,2.90
2023-05-08T12:26:37.866Z,2.70
2023-05-08T12:29:05.833Z,2.30
2023-05-08T12:31:37.059Z,2.90
2023-05-08T12:34:05.447Z,2.70
2023-05-08T12:36:36.172Z,3.00
2023-05-08T12:39:15.897Z,3.30
2023-05-08T12:41:49.688Z,3.10
2023-05-08T12:44:23.355Z,3.00
2023-05-08T12:46:54.285Z,2.60
2023-05-08T12:49:31.078Z,2.40
2023-05-08T12:52:09.281Z,3.30
2023-05-08T12:54:37.567Z,2.40
2023-05-08T12:57:17.586Z,2.60
2023-05-08T12:59:45.366Z,2.60
2023-05-08T13:02:23.763Z,2.80
2023-05-08T13:04:57.688Z,2.60
2023-05-08T13:07:24.871Z,2.20
2023-05-08T13:09:59.522Z,2.40
2023-05-08T13:12:26.984Z,2.70
2023-05-08T13:14:54.220Z,2.60
2023-05-08T13:17:21.381Z,2.40
2023-05-08T13:19:48.502Z,1.90
2023-05-08T13:22:15.354Z,2.80
2023-05-08T13:24:42.227Z,2.90
2023-05-08T13:27:09.432Z,2.90
2023-05-08T13:29:36.993Z,2.40
2023-05-08T13:32:04.170Z,2.50
2023-05-08T13:34:31.527Z,2.50
2023-05-08T13:36:58.756Z,2.90
2023-05-08T13:39:25.682Z,2.30
2023-05-08T13:41:52.672Z,3.00
2023-05-08T13:44:19.724Z,2.70
2023-05-08T13:46:46.558Z,2.90
2023-05-08T13:49:13.767Z,2.70
2023-05-08T13:51:40.816Z,2.90
2023-05-08T13:54:08.239Z,2.30
2023-05-08T13:56:35.237Z,2.80
2023-05-08T13:59:02.453Z,2.70
2023-05-08T14:01:29.855Z,2.50
2023-05-08T14:03:56.820Z,2.50
2023-05-08T14:06:24.178Z,2.50
2023-05-08T14:08:52.742Z,2.50
2023-05-08T14:11:21.862Z,3.00
2023-05-08T14:13:50.850Z,2.70
2023-05-08T14:16:17.974Z,2.50
2023-05-08T14:18:45.404Z,2.30
2023-05-08T14:21:12.287Z,2.40
2023-05-08T14:23:39.610Z,2.40
2023-05-08T14:26:06.869Z,2.50
2023-05-08T14:28:33.965Z,2.50
2023-05-08T14:31:01.138Z,2.60
2023-05-08T14:33:28.180Z,2.90
2023-05-08T14:35:55.159Z,2.40
2023-05-08T14:38:22.386Z,2.60
2023-05-08T14:40:50.512Z,2.30
2023-05-08T14:43:17.951Z,2.20
2023-05-08T14:45:44.858Z,2.20
2023-05-08T14:48:12.007Z,2.30
2023-05-08T14:50:39.131Z,2.60
2023-05-08T14:53:06.164Z,2.40
2023-05-08T14:55:33.698Z,2.50
2023-05-08T14:58:00.654Z,2.40
2023-05-08T15:00:27.720Z,2.40
2023-05-08T15:02:54.835Z,2.40
2023-05-08T15:05:22.159Z,2.70
2023-05-08T15:07:49.698Z,2.70
2023-05-08T15:10:16.711Z,2.30
2023-05-08T15:12:44.129Z,2.20
2023-05-08T15:15:13.188Z,2.70
2023-05-08T15:17:41.130Z,2.70
2023-05-08T15:20:08.754Z,2.60
2023-05-08T15:22:36.481Z,3.00
2023-05-08T15:25:03.949Z,2.80
2023-05-08T15:27:31.254Z,2.40
2023-05-08T15:29:58.701Z,2.60
2023-05-08T15:32:25.747Z,3.40
2023-05-08T15:34:52.707Z,2.60
2023-05-08T15:37:20.219Z,2.20
2023-05-08T15:39:47.211Z,3.50
2023-05-08T15:42:14.545Z,2.80
2023-05-08T15:44:54.679Z,2.50
2023-05-08T15:47:22.682Z,2.60
2023-05-08T15:49:51.415Z,3.30
2023-05-08T15:52:19.157Z,2.60
2023-05-08T15:54:46.618Z,2.50
2023-05-08T15:57:13.912Z,2.80
2023-05-08T15:59:41.073Z,2.70
2023-05-08T16:02:08.207Z,2.80
2023-05-08T16:04:35.516Z,2.90
2023-05-08T16:07:02.795Z,3.10
2023-05-08T16:09:29.807Z,3.10
2023-05-08T16:11:56.722Z,3.20
2023-05-08T16:14:23.864Z,2.90
2023-05-08T16:16:50.808Z,3.10
2023-05-08T16:19:17.695Z,3.40
2023-05-08T16:21:47.466Z,3.10
2023-05-08T16:24:14.519Z,2.90
2023-05-08T16:26:41.492Z,2.80
2023-05-08T16:29:08.428Z,3.00
2023-05-08T16:31:36.325Z,3.10
2023-05-08T16:34:03.733Z,2.90
2023-05-08T16:36:31.327Z,3.10
2023-05-08T16:38:58.281Z,3.20
2023-05-08T16:41:26.273Z,2.90
2023-05-08T16:43:53.321Z,3.20
2023-05-08T16:46:29.128Z,2.70
2023-05-08T16:48:58.356Z,2.90
2023-05-08T16:51:25.248Z,3.00
2023-05-08T16:53:52.233Z,2.50
2023-05-08T16:56:20.267Z,2.60
2023-05-08T16:58:47.373Z,2.80
2023-05-08T17:01:14.556Z,2.00
2023-05-08T17:03:42.913Z,2.60
2023-05-08T17:06:10.253Z,2.50
2023-05-08T17:08:37.389Z,2.50
2023-05-08T17:11:04.648Z,2.90
2023-05-08T17:13:36.497Z,2.60
2023-05-08T17:16:13.208Z,2.80
2023-05-08T17:18:40.835Z,2.70
2023-05-08T17:21:07.990Z,2.40
2023-05-08T17:23:34.936Z,2.70
2023-05-08T17:26:02.068Z,2.50
2023-05-08T17:28:29.356Z,2.90
2023-05-08T17:30:56.477Z,2.50
2023-05-08T17:33:24.051Z,2.70
2023-05-08T17:35:51.244Z,2.80
2023-05-08T17:38:18.326Z,2.80
2023-05-08T17:40:46.151Z,2.90
2023-05-08T17:43:13.543Z,2.50
2023-05-08T17:45:40.495Z,3.10
2023-05-08T17:48:07.531Z,3.20
2023-05-08T17:50:35.109Z,3.10
2023-05-08T17:53:01.957Z,3.00
2023-05-08T17:55:31.170Z,3.40
2023-05-08T17:57:58.375Z,3.70
2023-05-08T18:00:25.447Z,3.80
2023-05-08T18:02:52.552Z,3.10
2023-05-08T18:05:19.816Z,3.30
2023-05-08T18:07:47.578Z,2.70
2023-05-08T18:10:14.796Z,3.40
2023-05-08T18:12:42.108Z,3.30
2023-05-08T18:15:09.541Z,3.20
2023-05-08T18:17:38.304Z,2.90
2023-05-08T18:20:07.485Z,3.00
2023-05-08T18:22:35.148Z,2.90
2023-05-08T18:25:02.357Z,3.50
2023-05-08T18:27:32.966Z,3.20
2023-05-08T18:29:59.926Z,2.80
2023-05-08T18:32:26.990Z,3.30
2023-05-08T18:34:53.848Z,2.80
2023-05-08T18:37:21.422Z,3.30
2023-05-08T18:39:50.304Z,3.30
2023-05-08T18:42:17.330Z,3.40
2023-05-08T18:44:45.731Z,3.80
2023-05-08T18:47:12.793Z,3.50
2023-05-08T18:49:39.992Z,3.70
2023-05-08T18:52:06.909Z,4.70
2023-05-08T18:54:35.414Z,3.70
2023-05-08T18:57:02.287Z,4.30
2023-05-08T18:59:29.288Z,4.00
2023-05-08T19:01:57.137Z,5.00
2023-05-08T19:04:27.251Z,4.80
2023-05-08T19:06:57.434Z,4.80
2023-05-08T19:09:24.369Z,5.20
2023-05-08T19:11:51.385Z,5.60
2023-05-08T19:14:18.426Z,5.50
2023-05-08T19:16:46.638Z,4.90
2023-05-08T19:19:13.442Z,5.60
2023-05-08T19:21:42.921Z,5.40
2023-05-08T19:24:09.977Z,5.90
2023-05-08T19:26:37.272Z,5.80
2023-05-08T19:29:05.084Z,6.00
2023-05-08T19:31:32.405Z,5.20
2023-05-08T19:34:00.965Z,6.30
2023-05-08T19:36:27.887Z,6.30
2023-05-08T19:38:55.316Z,6.20
2023-05-08T19:41:23.645Z,7.00
2023-05-08T19:43:51.129Z,6.50
2023-05-08T19:46:18.239Z,6.50
2023-05-08T19:48:45.192Z,7.00
2023-05-08T19:51:12.275Z,6.70
2023-05-08T19:53:40.028Z,7.40
2023-05-08T19:56:07.235Z,6.50
2023-05-08T19:58:34.343Z,7.40
2023-05-08T20:01:01.373Z,6.60
2023-05-08T20:03:28.392Z,6.40
2023-05-08T20:05:55.526Z,5.80
2023-05-08T20:08:22.886Z,6.20
2023-05-08T20:10:50.080Z,6.30
2023-05-08T20:13:17.218Z,5.90
2023-05-08T20:15:44.607Z,6.20
2023-05-08T20:18:12.200Z,5.20
2023-05-08T20:20:39.160Z,5.90
2023-05-08T20:23:06.793Z,4.70
2023-05-08T20:25:33.806Z,5.70
2023-05-08T20:28:00.793Z,5.70
2023-05-08T20:30:27.870Z,5.30
2023-05-08T20:32:54.958Z,4.40
2023-05-08T20:35:22.166Z,5.30
2023-05-08T20:37:49.192Z,5.20
2023-05-08T20:40:16.266Z,5.00
2023-05-08T20:42:43.709Z,4.50
2023-05-08T20:45:10.997Z,4.40
2023-05-08T20:47:39.206Z,4.70
2023-05-08T20:50:06.840Z,4.50
2023-05-08T20:52:35.367Z,5.20
2023-05-08T20:55:04.962Z,4.80
2023-05-08T20:57:31.922Z,4.70
2023-05-08T20:59:58.849Z,4.80
2023-05-08T21:02:25.836Z,5.10
2023-05-08T21:04:52.835Z,4.70
2023-05-08T21:07:19.968Z,5.40
2023-05-08T21:09:46.880Z,4.70
2023-05-08T21:12:14.831Z,4.50
2023-05-08T21:14:43.581Z,5.10
2023-05-08T21:17:10.477Z,4.60
2023-05-08T21:19:37.721Z,4.60
2023-05-08T21:22:04.806Z,4.60
2023-05-08T21:24:32.105Z,4.40
2023-05-08T21:26:59.535Z,4.30
2023-05-08T21:29:26.587Z,4.30
2023-05-08T21:31:53.572Z,4.70
2023-05-08T21:34:23.337Z,4.30
2023-05-08T21:36:50.475Z,4.00
2023-05-08T21:39:17.339Z,3.80
2023-05-08T21:41:44.306Z,3.70
2023-05-08T21:44:12.276Z,3.90
2023-05-08T21:46:39.824Z,4.10
2023-05-08T21:49:06.747Z,4.10
2023-05-08T21:51:34.235Z,4.20
2023-05-08T21:54:01.163Z,3.10
2023-05-08T21:56:28.060Z,3.50
2023-05-08T21:58:55.267Z,4.40
2023-05-08T22:01:22.173Z,3.80
2023-05-08T22:03:49.248Z,3.40
2023-05-08T22:06:16.501Z,4.30
2023-05-08T22:08:43.488Z,4.30
2023-05-08T22:11:10.470Z,3.80
2023-05-08T22:13:37.423Z,3.30
2023-05-08T22:16:04.812Z,4.20
2023-05-08T22:18:31.736Z,4.60
2023-05-08T22:20:58.764Z,5.10
2023-05-08T22:23:25.772Z,4.40
2023-05-08T22:25:52.747Z,5.30
2023-05-08T22:28:19.705Z,5.50
2023-05-08T22:30:46.764Z,5.20
2023-05-08T22:33:13.655Z,5.20
2023-05-08T22:35:40.760Z,5.80
2023-05-08T22:38:07.571Z,5.20
2023-05-08T22:40:34.766Z,5.40
2023-05-08T22:43:01.684Z,4.90
2023-05-08T22:45:29.261Z,5.30
2023-05-08T22:47:56.239Z,4.70
2023-05-08T22:50:23.217Z,5.20
2023-05-08T22:52:50.162Z,4.70
2023-05-08T22:55:17.504Z,5.30
2023-05-08T22:57:44.576Z,4.80
2023-05-08T23:00:12.164Z,4.50
2023-05-08T23:02:42.151Z,5.80
2023-05-08T23:05:09.223Z,5.10
2023-05-08T23:07:36.133Z,4.90
2023-05-08T23:10:02.941Z,4.40
2023-05-08T23:12:30.610Z,4.90
2023-05-08T23:14:57.502Z,4.50
2023-05-08T23:17:24.495Z,4.70
2023-05-08T23:19:51.489Z,4.40
2023-05-08T23:22:18.375Z,4.70
2023-05-08T23:24:45.218Z,4.50
2023-05-08T23:27:12.354Z,5.20
2023-05-08T23:29:39.214Z,3.80
2023-05-08T23:32:06.357Z,4.40
2023-05-08T23:34:33.595Z,4.60
2023-05-08T23:37:00.920Z,4.60
2023-05-08T23:39:27.910Z,4.00
2023-05-08T23:41:54.928Z,4.40
2023-05-08T23:44:21.977Z,4.60
2023-05-08T23:46:49.003Z,4.90
2023-05-08T23:49:16.114Z,4.60
2023-05-08T23:51:42.955Z,4.50
2023-05-08T23:54:09.870Z,5.00
2023-05-08T23:56:37.132Z,5.10
2023-05-08T23:59:04.156Z,4.60
